RAMO2: Caney River, Ramona, OK

Data processed at Sun Aug 09 2020 23:31


All information presented herein is the property of the government of the United States of America and may be revised or deleted at any time without prior notice.
Dissemination of this information without the expressed written consent of the Public Affairs Office, Tulsa District U.S. Army Corps of Engineers is strictly prohibited.
These data are gathered electronically and, as presented, have not undergone any form of quality control. These data are not guaranteed to be valid or correct.
Go to home page.
Go to station list.
Go to home page.

Upstream stations:

Downstream station:
Previous Day
Next Day
Current Day
    
SHEF ID:       RAMO2     Caney River near Ramona, OK
STATION TYPE:  
Regulating: Stage =    26.00, Flow =    14852

               PRECIP     STAGE  STAGE(2)  RIV-FLOW   VOLTAGE  BAT-LOAD
                   in        ft        ft       cfs      volt      volt
              Ccp-Rev   Ccp-Rev   Ccp-Rev   Ccp-Rev   Ccp-Rev   Ccp-Rev
(US/Central)
08/09 00:00      0.00      3.69      2.89       313     12.60      ----
08/09 01:00      0.00      3.66      2.83       299     12.60      ----
08/09 02:00      0.00      3.65      2.88       294     12.60      ----
08/09 03:00      0.00      3.64      2.90       290     12.60      ----
08/09 04:00      0.00      3.60      2.88       272     12.60      ----
08/09 05:00      0.00      3.56      2.84       255     12.60      ----
08/09 06:00      0.00      3.54      2.85       246     12.60      ----
08/09 07:00      0.00      3.52      2.84       238     12.60      ----
08/09 08:00      0.00      3.51      2.93       234     12.60      ----
08/09 09:00      0.00      3.46      3.38       213     12.90      ----
08/09 10:00      0.00      3.43      3.37       200     13.20      ----
08/09 11:00      0.00      3.39      3.34       184     13.30      ----
08/09 12:00      0.00      3.35      3.28       169     13.60      ----
08/09 13:00      0.00      3.37      3.30       177     13.60      ----
08/09 14:00      0.00      3.28      3.26       145     13.60      ----
08/09 15:00      0.00      3.27      3.24       142     13.60      ----
08/09 16:00      0.00      3.26      3.19       138     13.60      ----
08/09 17:00      0.00      3.27      3.07       142     13.50      ----
08/09 18:00      0.00      3.22      2.75       126     13.40      ----
08/09 19:00      0.00      3.23      2.68       129     12.80      ----
08/09 20:00      0.00      3.21      2.51       123     12.70      ----
08/09 21:00      0.00      3.19      2.36       117     12.70      ----
08/09 22:00      0.00      3.16      2.24       109     12.70      ----
08/09 23:00      ----      ----      ----      ----      ----      ----